TFFF Airport Informations

Runway Information
Runway 10 Length 9843 ft width 148 ft
Elevation 10 ft Threshold ft Heading 80
Runway 28 Length 9843 ft Width 148 ft
Elevation 14 ft Threshold 984 ft Heading 260
Airport Frequencies
Type APP Name FORT DE FR Frequency 121 MHZ
Type ATIS Name ATIS Frequency 127.85 MHZ
Type GND Name GND Frequency 121.9 MHZ
Type TWR Name FORT DE FR Frequency 118.5 MHZ
Airport Navaids
Type VOR-DME Name Fort De France Frequency 113300 KHZ
Type NDB Name Fort De France Frequency 329 KHZ
Airport Weather Information & NOTAM
ADDS - METARS form results

(1939 UTC 16 August 2022)
Data provider http://aviationweather.gov/metar/data/
 
METAR text: TFFF 161930Z AUTO 11012KT //// R10///// // BKN031 BKN039 31/23 Q1013
Conditions at: TFFF (LE LAMENTIN/MART, MQ) observed 1930 UTC 16 August 2022
Temperature: 31.0°C (88°F)
Dewpoint: 23.0°C (73°F) [RH = 63%]
Pressure (altimeter): 29.91 inches Hg (1013.0 mb)
Winds: from the ESE (110 degrees) at 14 MPH (12 knots; 6.2 m/s)
Visibility: missing
Ceiling: 3100 feet AGL
Clouds: broken clouds at 3100 feet AGL
broken clouds at 3900 feet AGL
Weather: no significant weather observed at this time

METAR text: TFFF 161900Z AUTO 11012KT //// R10///// // SCT031 BKN038 31/25 Q1013
Conditions at: TFFF (LE LAMENTIN/MART, MQ) observed 1900 UTC 16 August 2022
Temperature: 31.0°C (88°F)
Dewpoint: 25.0°C (77°F) [RH = 71%]
Pressure (altimeter): 29.91 inches Hg (1013.0 mb)
Winds: from the ESE (110 degrees) at 14 MPH (12 knots; 6.2 m/s)
Visibility: missing
Ceiling: 3800 feet AGL
Clouds: scattered clouds at 3100 feet AGL
broken clouds at 3800 feet AGL
Weather: no significant weather observed at this time

Forecast for: TFFF (LE LAMENTIN/MART, MQ)
Text: TAF TFFF 161700Z 1618/1718 11015G25KT 9999 SCT035
Forecast period: 1800 to 2100 UTC 16 August 2022
Forecast type: FROM: standard forecast or significant change
Winds: from the ESE (110 degrees) at 17 MPH (15 knots; 7.7 m/s)
gusting to 29 MPH (25 knots; 12.9 m/s)
Visibility: 6 or more miles (10+ km)
Ceiling: at least 12,000 feet AGL
Clouds: scattered clouds at 3500 feet AGL
Weather: no significant weather forecast for this period
Text: BECMG 1621/1623 09008KT
Forecast period: 2100 UTC 16 August 2022 to 1800 UTC 17 August 2022
Forecast type: BECOMING: Conditions expected to become as follows by 2300 UTC 16 August 2022
Winds: from the E (90 degrees) at 9 MPH (8 knots; 4.1 m/s)
Visibility: 6 or more miles (10+ km)
Ceiling: at least 12,000 feet AGL
Clouds: scattered clouds at 3500 feet AGL
Weather: no significant weather forecast for this period
Text: PROB30
Forecast period: 1400 to 1800 UTC 17 August 2022
Forecast type: TEMPORARY: The following changes expected for less than half the time period
Winds: from the E (90 degrees) at 17 MPH (15 knots; 7.7 m/s)
gusting to 29 MPH (25 knots; 12.9 m/s)
Visibility: 2.49 miles (4.01 km)
Ceiling: at least 12,000 feet AGL
Clouds: scattered clouds at 2000 feet AGL
Weather: SHRA  (rain showers)